ROU1420 CYUL-MUCC
Flight info
| Callsign | ROU1420 |
|---|---|
| Flight time | N/A |
| Altitude | 36000 |
| Route | FAWNS DCT BUGSY DCT SYR J59 PSB Q71 EMNEM Q103 RICCS/N0446F380 Q103 SLOJO/N0437F390 DCT EFFAY/N0442F380 Q83 JEVED Q97 DEBRL/N0438F390 Q97 TOVAR Y297 URSUS RESEB2 |
| Aircraft | A320/M-SDE3FGHIRWY/LB1 |
Departure
| Time | 2026-05-06 10:22 |
|---|---|
| Airport | Montreal / Pierre Elliott Trudeau International Airport (CYUL) |
Arrival
| Time | N/A |
|---|---|
| Airport | Jardines Del Rey Airport (MUCC) |
| Time | Latitude | Longitude | Altitude | Speed | Heading |
|---|---|---|---|---|---|
| 2026-05-06 10:00 | 45.45698 | -73.75397 | 115 ft | 0 kts | 118° |
| 2026-05-06 10:09 | 45.45702 | -73.75408 | 114 ft | 4 kts | 118° |
| 2026-05-06 10:10 | 45.45713 | -73.75434 | 113 ft | 4 kts | 125° |
| 2026-05-06 10:10 | 45.45731 | -73.75462 | 113 ft | 4 kts | 145° |
| 2026-05-06 10:10 | 45.45751 | -73.75483 | 115 ft | 2 kts | 134° |
| 2026-05-06 10:10 | 45.45753 | -73.75485 | 114 ft | 0 kts | 133° |
| 2026-05-06 10:13 | 45.45737 | -73.75473 | 113 ft | 8 kts | 160° |
| 2026-05-06 10:13 | 45.45669 | -73.75507 | 114 ft | 12 kts | 207° |
| 2026-05-06 10:13 | 45.45626 | -73.75614 | 116 ft | 14 kts | 257° |
| 2026-05-06 10:14 | 45.45667 | -73.75720 | 115 ft | 18 kts | 347° |
| 2026-05-06 10:14 | 45.45749 | -73.75833 | 114 ft | 17 kts | 310° |
| 2026-05-06 10:14 | 45.45844 | -73.75936 | 113 ft | 18 kts | 348° |
| 2026-05-06 10:14 | 45.45972 | -73.75955 | 114 ft | 19 kts | 358° |
| 2026-05-06 10:15 | 45.46088 | -73.75960 | 114 ft | 12 kts | 1° |
| 2026-05-06 10:15 | 45.46126 | -73.75879 | 114 ft | 10 kts | 86° |
| 2026-05-06 10:15 | 45.46129 | -73.75755 | 115 ft | 17 kts | 86° |
| 2026-05-06 10:15 | 45.46135 | -73.75544 | 116 ft | 24 kts | 88° |
| 2026-05-06 10:16 | 45.46142 | -73.75300 | 115 ft | 25 kts | 88° |
| 2026-05-06 10:16 | 45.46149 | -73.75044 | 116 ft | 27 kts | 88° |
| 2026-05-06 10:16 | 45.46157 | -73.74773 | 114 ft | 28 kts | 87° |
| 2026-05-06 10:16 | 45.46140 | -73.74570 | 114 ft | 15 kts | 125° |
| 2026-05-06 10:17 | 45.46130 | -73.74366 | 113 ft | 25 kts | 88° |
| 2026-05-06 10:17 | 45.46137 | -73.74116 | 116 ft | 22 kts | 86° |
| 2026-05-06 10:17 | 45.46206 | -73.73969 | 116 ft | 23 kts | 42° |
| 2026-05-06 10:17 | 45.46344 | -73.73789 | 116 ft | 28 kts | 43° |
| 2026-05-06 10:18 | 45.46491 | -73.73597 | 114 ft | 29 kts | 42° |
| 2026-05-06 10:18 | 45.46641 | -73.73403 | 113 ft | 28 kts | 43° |
| 2026-05-06 10:18 | 45.46782 | -73.73214 | 115 ft | 28 kts | 43° |
| 2026-05-06 10:18 | 45.46925 | -73.73024 | 116 ft | 29 kts | 42° |
| 2026-05-06 10:19 | 45.47073 | -73.72834 | 114 ft | 29 kts | 43° |
| 2026-05-06 10:19 | 45.47224 | -73.72636 | 116 ft | 29 kts | 43° |
| 2026-05-06 10:19 | 45.47369 | -73.72446 | 114 ft | 29 kts | 43° |
| 2026-05-06 10:19 | 45.47516 | -73.72253 | 115 ft | 29 kts | 43° |
| 2026-05-06 10:20 | 45.47664 | -73.72060 | 115 ft | 27 kts | 42° |
| 2026-05-06 10:20 | 45.47799 | -73.71884 | 116 ft | 18 kts | 43° |
| 2026-05-06 10:20 | 45.47779 | -73.71760 | 115 ft | 17 kts | 133° |
| 2026-05-06 10:20 | 45.47698 | -73.71651 | 115 ft | 13 kts | 158° |
| 2026-05-06 10:21 | 45.47640 | -73.71686 | 115 ft | 0 kts | 223° |
| 2026-05-06 10:21 | 45.47592 | -73.71749 | 117 ft | 36 kts | 222° |
| 2026-05-06 10:21 | 45.47225 | -73.72229 | 114 ft | 105 kts | 223° |
| 2026-05-06 10:22 | 45.46531 | -73.73138 | 111 ft | 160 kts | 223° |
| 2026-05-06 10:22 | 45.45674 | -73.74257 | 631 ft | 165 kts | 223° |
| 2026-05-06 10:22 | 45.44843 | -73.75376 | 1344 ft | 164 kts | 224° |
| 2026-05-06 10:22 | 45.44026 | -73.76505 | 2017 ft | 166 kts | 225° |
| 2026-05-06 10:23 | 45.43155 | -73.77713 | 2398 ft | 185 kts | 224° |
| 2026-05-06 10:23 | 45.42185 | -73.79052 | 2751 ft | 204 kts | 224° |
| 2026-05-06 10:23 | 45.41112 | -73.80517 | 3018 ft | 230 kts | 224° |
| 2026-05-06 10:23 | 45.39856 | -73.82180 | 3388 ft | 256 kts | 219° |
| 2026-05-06 10:24 | 45.38281 | -73.83460 | 4129 ft | 266 kts | 206° |
| 2026-05-06 10:24 | 45.36617 | -73.84558 | 5040 ft | 267 kts | 204° |
| 2026-05-06 10:24 | 45.34910 | -73.85611 | 5988 ft | 268 kts | 203° |
| 2026-05-06 10:24 | 45.33177 | -73.86681 | 6826 ft | 274 kts | 205° |
| 2026-05-06 10:25 | 45.31433 | -73.87841 | 7625 ft | 280 kts | 206° |
| 2026-05-06 10:25 | 45.29670 | -73.89042 | 8445 ft | 284 kts | 206° |
| 2026-05-06 10:25 | 45.27881 | -73.90269 | 9305 ft | 286 kts | 206° |
| 2026-05-06 10:25 | 45.26078 | -73.91481 | 10126 ft | 288 kts | 205° |
| 2026-05-06 10:26 | 45.24207 | -73.92721 | 10546 ft | 308 kts | 205° |
| 2026-05-06 10:26 | 45.22192 | -73.94047 | 10847 ft | 328 kts | 205° |
| 2026-05-06 10:26 | 45.20095 | -73.95420 | 11465 ft | 336 kts | 205° |
| 2026-05-06 10:26 | 45.17951 | -73.96823 | 12192 ft | 340 kts | 205° |
| 2026-05-06 10:27 | 45.15791 | -73.98238 | 12908 ft | 344 kts | 205° |
| 2026-05-06 10:27 | 45.13612 | -73.99667 | 13607 ft | 348 kts | 205° |
| 2026-05-06 10:27 | 45.11405 | -74.01118 | 14289 ft | 351 kts | 205° |
| 2026-05-06 10:27 | 45.09177 | -74.02580 | 14952 ft | 355 kts | 205° |
| 2026-05-06 10:28 | 45.06926 | -74.04058 | 15594 ft | 358 kts | 205° |
| 2026-05-06 10:28 | 45.04652 | -74.05549 | 16219 ft | 362 kts | 205° |
| 2026-05-06 10:28 | 45.02358 | -74.07053 | 16835 ft | 365 kts | 205° |
| 2026-05-06 10:28 | 45.00022 | -74.08506 | 17428 ft | 369 kts | 200° |
| 2026-05-06 10:29 | 44.97579 | -74.09390 | 18167 ft | 376 kts | 193° |
| 2026-05-06 10:29 | 44.95045 | -74.09821 | 19279 ft | 358 kts | 193° |
| 2026-05-06 10:29 | 44.92620 | -74.10244 | 20351 ft | 347 kts | 194° |
| 2026-05-06 10:29 | 44.90226 | -74.10691 | 21012 ft | 347 kts | 195° |
| 2026-05-06 10:30 | 44.87830 | -74.11162 | 21582 ft | 349 kts | 195° |
| 2026-05-06 10:30 | 44.85405 | -74.11647 | 22116 ft | 353 kts | 195° |
| 2026-05-06 10:30 | 44.82968 | -74.12132 | 22602 ft | 357 kts | 195° |
| 2026-05-06 10:30 | 44.80485 | -74.12611 | 23108 ft | 361 kts | 195° |
| 2026-05-06 10:31 | 44.77981 | -74.13085 | 23588 ft | 365 kts | 195° |
| 2026-05-06 10:31 | 44.75477 | -74.13626 | 23996 ft | 363 kts | 200° |
| 2026-05-06 10:31 | 44.73088 | -74.14698 | 24404 ft | 358 kts | 210° |
| 2026-05-06 10:31 | 44.70921 | -74.16355 | 24810 ft | 353 kts | 219° |
| 2026-05-06 10:32 | 44.69034 | -74.18544 | 25222 ft | 351 kts | 228° |
| 2026-05-06 10:32 | 44.67884 | -74.20143 | 25486 ft | 352 kts | 228° |
| 2026-05-06 10:32 | 44.66128 | -74.22568 | 25837 ft | 355 kts | 228° |
| 2026-05-06 10:32 | 44.64358 | -74.24996 | 26193 ft | 357 kts | 228° |
| 2026-05-06 10:33 | 44.62573 | -74.27429 | 26575 ft | 359 kts | 228° |
| 2026-05-06 10:33 | 44.60774 | -74.29873 | 26955 ft | 361 kts | 228° |
| 2026-05-06 10:33 | 44.58963 | -74.32338 | 27339 ft | 363 kts | 228° |
| 2026-05-06 10:33 | 44.57146 | -74.34806 | 27708 ft | 365 kts | 228° |
| 2026-05-06 10:34 | 44.55319 | -74.37285 | 28070 ft | 366 kts | 228° |
| 2026-05-06 10:34 | 44.53486 | -74.39778 | 28422 ft | 368 kts | 229° |
| 2026-05-06 10:34 | 44.51649 | -74.42284 | 28767 ft | 370 kts | 229° |
| 2026-05-06 10:34 | 44.49799 | -74.44800 | 29070 ft | 372 kts | 229° |
| 2026-05-06 10:35 | 44.47939 | -74.47325 | 29386 ft | 374 kts | 229° |
| 2026-05-06 10:35 | 44.46066 | -74.49860 | 29704 ft | 376 kts | 229° |
| 2026-05-06 10:35 | 44.44182 | -74.52410 | 30006 ft | 377 kts | 229° |
| 2026-05-06 10:35 | 44.42290 | -74.54964 | 30274 ft | 378 kts | 229° |
| 2026-05-06 10:36 | 44.40392 | -74.57525 | 30532 ft | 379 kts | 229° |
| 2026-05-06 10:36 | 44.38493 | -74.60089 | 30784 ft | 380 kts | 229° |
| 2026-05-06 10:36 | 44.36588 | -74.62660 | 31038 ft | 381 kts | 229° |
| 2026-05-06 10:36 | 44.34676 | -74.65239 | 31307 ft | 381 kts | 229° |
| 2026-05-06 10:37 | 44.32768 | -74.67806 | 31614 ft | 380 kts | 229° |
| 2026-05-06 10:37 | 44.30866 | -74.70363 | 31951 ft | 379 kts | 229° |
| 2026-05-06 10:37 | 44.28978 | -74.72900 | 32302 ft | 377 kts | 229° |
| 2026-05-06 10:37 | 44.27089 | -74.75439 | 32649 ft | 375 kts | 229° |
| 2026-05-06 10:38 | 44.25239 | -74.77916 | 33005 ft | 373 kts | 229° |
| 2026-05-06 10:38 | 44.23347 | -74.80444 | 33378 ft | 371 kts | 229° |
| 2026-05-06 10:38 | 44.21511 | -74.82898 | 33737 ft | 369 kts | 229° |
| 2026-05-06 10:38 | 44.19662 | -74.85372 | 34050 ft | 368 kts | 229° |
| 2026-05-06 10:39 | 44.17832 | -74.87822 | 34284 ft | 367 kts | 229° |
| 2026-05-06 10:39 | 44.15988 | -74.90288 | 34509 ft | 368 kts | 229° |
| 2026-05-06 10:39 | 44.14143 | -74.92750 | 34715 ft | 368 kts | 229° |
| 2026-05-06 10:39 | 44.12313 | -74.95186 | 34938 ft | 369 kts | 230° |
| 2026-05-06 10:40 | 44.10459 | -74.97658 | 35153 ft | 369 kts | 230° |
| 2026-05-06 10:40 | 44.08606 | -75.00125 | 35356 ft | 369 kts | 230° |
| 2026-05-06 10:40 | 44.06748 | -75.02592 | 35567 ft | 369 kts | 230° |
| 2026-05-06 10:40 | 44.04893 | -75.05054 | 35783 ft | 370 kts | 230° |
| 2026-05-06 10:41 | 44.01176 | -75.09983 | 35833 ft | 368 kts | 230° |
| 2026-05-06 10:41 | 43.97471 | -75.14897 | 35862 ft | 369 kts | 230° |
| 2026-05-06 10:42 | 43.93758 | -75.19801 | 35862 ft | 369 kts | 230° |
| 2026-05-06 10:42 | 43.90035 | -75.24700 | 35863 ft | 369 kts | 230° |
| 2026-05-06 10:43 | 43.86313 | -75.29593 | 35863 ft | 369 kts | 230° |
| 2026-05-06 10:44 | 43.80754 | -75.36899 | 35857 ft | 369 kts | 230° |
| 2026-05-06 10:44 | 43.77028 | -75.41782 | 35858 ft | 369 kts | 230° |
| 2026-05-06 10:45 | 43.73313 | -75.46652 | 35851 ft | 367 kts | 229° |
| 2026-05-06 10:45 | 43.69601 | -75.51493 | 35858 ft | 367 kts | 229° |
| 2026-05-06 10:46 | 43.65889 | -75.56333 | 35848 ft | 367 kts | 229° |
| 2026-05-06 10:46 | 43.62174 | -75.61164 | 35845 ft | 367 kts | 229° |
| 2026-05-06 10:47 | 43.58450 | -75.65992 | 35850 ft | 367 kts | 229° |
| 2026-05-06 10:47 | 43.54734 | -75.70814 | 35843 ft | 367 kts | 229° |
| 2026-05-06 10:48 | 43.51009 | -75.75640 | 35839 ft | 368 kts | 230° |
| 2026-05-06 10:48 | 43.47273 | -75.80469 | 35849 ft | 369 kts | 229° |
| 2026-05-06 10:49 | 43.43521 | -75.85300 | 35853 ft | 369 kts | 229° |
| 2026-05-06 10:49 | 43.39776 | -75.90115 | 35834 ft | 369 kts | 229° |
| 2026-05-06 10:50 | 43.36016 | -75.94934 | 35850 ft | 369 kts | 229° |
| 2026-05-06 10:50 | 43.32261 | -75.99757 | 35858 ft | 370 kts | 229° |
| 2026-05-06 10:51 | 43.28491 | -76.04590 | 35862 ft | 371 kts | 229° |
| 2026-05-06 10:51 | 43.24724 | -76.09411 | 35867 ft | 371 kts | 229° |
| 2026-05-06 10:52 | 43.20945 | -76.14235 | 35868 ft | 371 kts | 229° |
| 2026-05-06 10:52 | 43.17168 | -76.19030 | 35858 ft | 371 kts | 229° |
| 2026-05-06 10:53 | 43.12857 | -76.23111 | 35871 ft | 381 kts | 219° |
| 2026-05-06 10:53 | 43.08323 | -76.26865 | 35867 ft | 381 kts | 219° |
| 2026-05-06 10:54 | 43.03818 | -76.30595 | 35869 ft | 381 kts | 219° |
| 2026-05-06 10:54 | 42.99275 | -76.34351 | 35851 ft | 381 kts | 220° |
| 2026-05-06 10:55 | 42.94723 | -76.38105 | 35867 ft | 382 kts | 220° |
| 2026-05-06 10:55 | 42.90173 | -76.41852 | 35865 ft | 382 kts | 219° |
| 2026-05-06 10:56 | 42.85617 | -76.45592 | 35861 ft | 382 kts | 219° |
| 2026-05-06 10:56 | 42.81062 | -76.49328 | 35849 ft | 383 kts | 220° |
| 2026-05-06 10:57 | 42.76489 | -76.53066 | 35852 ft | 381 kts | 220° |
| 2026-05-06 10:57 | 42.71967 | -76.56773 | 35848 ft | 380 kts | 220° |
| 2026-05-06 10:58 | 42.67440 | -76.60467 | 35843 ft | 379 kts | 220° |
| 2026-05-06 10:58 | 42.62911 | -76.64160 | 35827 ft | 380 kts | 220° |
| 2026-05-06 10:59 | 42.58353 | -76.67874 | 35841 ft | 383 kts | 220° |
| 2026-05-06 10:59 | 42.53780 | -76.71577 | 35841 ft | 383 kts | 220° |
| 2026-05-06 11:00 | 42.49210 | -76.75278 | 35838 ft | 383 kts | 220° |
| 2026-05-06 11:00 | 42.44638 | -76.78987 | 35832 ft | 383 kts | 220° |
| 2026-05-06 11:01 | 42.40050 | -76.82700 | 35849 ft | 385 kts | 220° |
| 2026-05-06 11:01 | 42.35449 | -76.86407 | 35839 ft | 385 kts | 220° |
| 2026-05-06 11:02 | 42.31039 | -76.89948 | 35839 ft | 381 kts | 220° |
| 2026-05-06 11:02 | 42.26499 | -76.93594 | 35802 ft | 379 kts | 220° |
| 2026-05-06 11:03 | 42.21956 | -76.97249 | 35831 ft | 380 kts | 220° |
| 2026-05-06 11:03 | 42.17438 | -77.00874 | 35810 ft | 380 kts | 220° |
| 2026-05-06 11:04 | 42.12884 | -77.04517 | 35817 ft | 381 kts | 220° |
| 2026-05-06 11:04 | 42.08291 | -77.08174 | 35818 ft | 381 kts | 220° |
| 2026-05-06 11:05 | 42.03733 | -77.11803 | 35815 ft | 381 kts | 220° |
| 2026-05-06 11:05 | 41.99185 | -77.15419 | 35812 ft | 380 kts | 220° |
| 2026-05-06 11:06 | 41.94651 | -77.19026 | 35808 ft | 381 kts | 220° |
| 2026-05-06 11:06 | 41.90097 | -77.22639 | 35807 ft | 381 kts | 220° |
| 2026-05-06 11:07 | 41.85540 | -77.26252 | 35797 ft | 380 kts | 219° |
| 2026-05-06 11:07 | 41.80986 | -77.29846 | 35796 ft | 379 kts | 219° |
| 2026-05-06 11:08 | 41.76444 | -77.33430 | 35797 ft | 379 kts | 219° |
| 2026-05-06 11:08 | 41.71891 | -77.37009 | 35799 ft | 379 kts | 219° |
| 2026-05-06 11:09 | 41.67333 | -77.40584 | 35788 ft | 380 kts | 220° |
| 2026-05-06 11:09 | 41.62766 | -77.44168 | 35789 ft | 381 kts | 220° |
| 2026-05-06 11:10 | 41.58202 | -77.47754 | 35789 ft | 380 kts | 220° |
| 2026-05-06 11:10 | 41.53635 | -77.51334 | 35799 ft | 381 kts | 220° |
| 2026-05-06 11:11 | 41.49068 | -77.54900 | 35794 ft | 381 kts | 220° |
| 2026-05-06 11:11 | 41.44497 | -77.58464 | 35780 ft | 381 kts | 220° |
| 2026-05-06 11:12 | 41.39923 | -77.62025 | 35789 ft | 381 kts | 220° |
| 2026-05-06 11:12 | 41.35380 | -77.65553 | 35796 ft | 380 kts | 220° |
| 2026-05-06 11:13 | 41.30806 | -77.69100 | 35793 ft | 381 kts | 220° |
| 2026-05-06 11:13 | 41.26232 | -77.72642 | 35805 ft | 381 kts | 221° |
| 2026-05-06 11:14 | 41.21643 | -77.76200 | 35802 ft | 382 kts | 221° |
| 2026-05-06 11:14 | 41.17055 | -77.79745 | 35808 ft | 382 kts | 220° |
| 2026-05-06 11:15 | 41.12457 | -77.83285 | 35774 ft | 382 kts | 221° |
| 2026-05-06 11:15 | 41.07856 | -77.86821 | 35820 ft | 383 kts | 221° |
| 2026-05-06 11:16 | 41.03248 | -77.90364 | 35826 ft | 382 kts | 221° |
| 2026-05-06 11:16 | 40.98648 | -77.93901 | 35828 ft | 382 kts | 221° |
| 2026-05-06 11:17 | 40.94044 | -77.97426 | 35830 ft | 382 kts | 221° |
| 2026-05-06 11:17 | 40.91881 | -77.99359 | 35816 ft | 371 kts | 230° |
| 2026-05-06 11:17 | 40.90036 | -78.01679 | 35829 ft | 361 kts | 238° |
| 2026-05-06 11:18 | 40.86769 | -78.06689 | 35828 ft | 360 kts | 238° |
| 2026-05-06 11:18 | 40.83490 | -78.11709 | 35825 ft | 360 kts | 238° |
| 2026-05-06 11:19 | 40.80216 | -78.16709 | 35820 ft | 360 kts | 238° |
| 2026-05-06 11:19 | 40.76934 | -78.21704 | 35812 ft | 360 kts | 238° |
| 2026-05-06 11:20 | 40.73645 | -78.26700 | 35796 ft | 360 kts | 238° |
| 2026-05-06 11:20 | 40.70907 | -78.30846 | 35813 ft | 361 kts | 238° |
| 2026-05-06 11:21 | 40.67610 | -78.35831 | 35819 ft | 360 kts | 238° |
| 2026-05-06 11:21 | 40.64320 | -78.40802 | 35817 ft | 360 kts | 238° |
| 2026-05-06 11:22 | 40.61027 | -78.45775 | 35818 ft | 360 kts | 238° |
| 2026-05-06 11:22 | 40.57731 | -78.50749 | 35822 ft | 360 kts | 238° |
| 2026-05-06 11:23 | 40.54435 | -78.55711 | 35823 ft | 361 kts | 238° |
| 2026-05-06 11:23 | 40.51129 | -78.60674 | 35815 ft | 361 kts | 238° |
| 2026-05-06 11:24 | 40.47823 | -78.65629 | 35813 ft | 361 kts | 238° |
| 2026-05-06 11:24 | 40.44533 | -78.70541 | 35823 ft | 358 kts | 238° |
| 2026-05-06 11:25 | 40.41257 | -78.75439 | 35840 ft | 356 kts | 238° |
| 2026-05-06 11:25 | 40.37989 | -78.80325 | 35841 ft | 356 kts | 238° |
| 2026-05-06 11:26 | 40.34712 | -78.85214 | 35835 ft | 358 kts | 239° |
| 2026-05-06 11:26 | 40.31422 | -78.90111 | 35840 ft | 358 kts | 238° |
| 2026-05-06 11:27 | 40.28129 | -78.95001 | 35842 ft | 358 kts | 238° |
| 2026-05-06 11:27 | 40.24827 | -78.99895 | 35837 ft | 358 kts | 238° |
| 2026-05-06 11:28 | 40.21527 | -79.04779 | 35831 ft | 358 kts | 238° |
| 2026-05-06 11:28 | 40.18227 | -79.09653 | 35829 ft | 357 kts | 238° |
| 2026-05-06 11:29 | 40.14932 | -79.14512 | 35839 ft | 357 kts | 238° |
| 2026-05-06 11:29 | 40.11665 | -79.19374 | 35835 ft | 356 kts | 239° |
| 2026-05-06 11:30 | 40.08427 | -79.24272 | 35842 ft | 356 kts | 239° |
| 2026-05-06 11:30 | 40.05192 | -79.29161 | 35836 ft | 356 kts | 239° |
| 2026-05-06 11:31 | 40.01951 | -79.34034 | 35838 ft | 356 kts | 239° |
| 2026-05-06 11:31 | 39.98696 | -79.38904 | 35803 ft | 356 kts | 239° |
| 2026-05-06 11:32 | 39.95435 | -79.43779 | 35849 ft | 357 kts | 239° |
| 2026-05-06 11:32 | 39.92181 | -79.48636 | 35841 ft | 356 kts | 239° |
| 2026-05-06 11:33 | 39.88952 | -79.53458 | 35842 ft | 355 kts | 239° |
| 2026-05-06 11:33 | 39.85700 | -79.58306 | 35840 ft | 355 kts | 239° |
| 2026-05-06 11:34 | 39.82450 | -79.63143 | 35844 ft | 355 kts | 239° |
| 2026-05-06 11:34 | 39.79197 | -79.67969 | 35788 ft | 355 kts | 239° |
| 2026-05-06 11:35 | 39.75930 | -79.72825 | 35853 ft | 358 kts | 239° |
| 2026-05-06 11:35 | 39.72645 | -79.77694 | 35858 ft | 359 kts | 239° |
| 2026-05-06 11:36 | 39.69355 | -79.82536 | 35861 ft | 357 kts | 239° |
| 2026-05-06 11:36 | 39.66077 | -79.87362 | 35862 ft | 356 kts | 239° |
| 2026-05-06 11:37 | 39.62811 | -79.92180 | 35866 ft | 355 kts | 239° |
| 2026-05-06 11:37 | 39.59546 | -79.96984 | 35832 ft | 355 kts | 239° |
| 2026-05-06 11:38 | 39.56271 | -80.01795 | 35858 ft | 356 kts | 239° |
| 2026-05-06 11:38 | 39.52354 | -80.05987 | 35854 ft | 386 kts | 219° |
| 2026-05-06 11:38 | 39.49754 | -80.07200 | 35852 ft | 411 kts | 206° |
| 2026-05-06 11:39 | 39.46825 | -80.07581 | 35852 ft | 435 kts | 195° |
| 2026-05-06 11:39 | 39.40757 | -80.07646 | 35845 ft | 436 kts | 195° |
| 2026-05-06 11:40 | 39.34680 | -80.07722 | 35851 ft | 439 kts | 195° |
| 2026-05-06 11:40 | 39.28563 | -80.07819 | 35850 ft | 440 kts | 195° |
| 2026-05-06 11:41 | 39.22439 | -80.07911 | 35847 ft | 440 kts | 195° |
| 2026-05-06 11:41 | 39.16323 | -80.08004 | 35846 ft | 440 kts | 195° |
| 2026-05-06 11:42 | 39.10189 | -80.08107 | 35845 ft | 442 kts | 195° |
| 2026-05-06 11:42 | 39.04038 | -80.08201 | 35864 ft | 442 kts | 195° |
| 2026-05-06 11:43 | 38.97886 | -80.08300 | 35871 ft | 442 kts | 195° |
| 2026-05-06 11:43 | 38.91837 | -80.08634 | 35838 ft | 426 kts | 204° |
| 2026-05-06 11:44 | 38.86203 | -80.10425 | 35874 ft | 415 kts | 210° |
| 2026-05-06 11:44 | 38.83413 | -80.11419 | 35875 ft | 416 kts | 210° |
| 2026-05-06 11:44 | 38.77839 | -80.13389 | 35877 ft | 416 kts | 210° |
| 2026-05-06 11:45 | 38.72257 | -80.15350 | 35875 ft | 416 kts | 210° |
| 2026-05-06 11:45 | 38.66660 | -80.17300 | 35858 ft | 417 kts | 210° |
| 2026-05-06 11:46 | 38.61069 | -80.19246 | 35870 ft | 416 kts | 210° |
| 2026-05-06 11:46 | 38.55490 | -80.21192 | 35869 ft | 415 kts | 210° |
| 2026-05-06 11:47 | 38.49923 | -80.23138 | 35881 ft | 414 kts | 210° |
| 2026-05-06 11:47 | 38.44365 | -80.25082 | 35876 ft | 415 kts | 210° |
| 2026-05-06 11:48 | 38.38780 | -80.27021 | 35883 ft | 416 kts | 210° |
| 2026-05-06 11:48 | 38.33194 | -80.28949 | 35892 ft | 416 kts | 210° |
| 2026-05-06 11:49 | 38.27616 | -80.30874 | 35888 ft | 415 kts | 210° |
| 2026-05-06 11:49 | 38.22033 | -80.32804 | 35884 ft | 417 kts | 210° |
| 2026-05-06 11:50 | 38.16468 | -80.34725 | 35878 ft | 417 kts | 210° |
| 2026-05-06 11:50 | 38.10861 | -80.36651 | 35873 ft | 416 kts | 210° |
| 2026-05-06 11:51 | 38.05265 | -80.38576 | 35882 ft | 417 kts | 209° |
| 2026-05-06 11:51 | 37.99656 | -80.40499 | 35885 ft | 418 kts | 209° |
| 2026-05-06 11:52 | 37.94059 | -80.42414 | 35942 ft | 417 kts | 210° |
| 2026-05-06 11:52 | 37.88450 | -80.44338 | 35945 ft | 417 kts | 210° |
| 2026-05-06 11:53 | 37.82853 | -80.46258 | 35942 ft | 417 kts | 210° |
| 2026-05-06 11:53 | 37.77228 | -80.48180 | 35943 ft | 420 kts | 209° |
| 2026-05-06 11:54 | 37.71581 | -80.50102 | 35930 ft | 421 kts | 209° |
| 2026-05-06 11:54 | 37.65929 | -80.52020 | 35904 ft | 421 kts | 209° |
| 2026-05-06 11:55 | 37.60274 | -80.53941 | 35909 ft | 420 kts | 209° |
| 2026-05-06 11:55 | 37.54650 | -80.55848 | 35886 ft | 419 kts | 209° |
| 2026-05-06 11:56 | 37.49027 | -80.57750 | 35883 ft | 418 kts | 209° |
| 2026-05-06 11:56 | 37.43408 | -80.59651 | 35875 ft | 418 kts | 210° |
| 2026-05-06 11:57 | 37.37778 | -80.61552 | 35870 ft | 418 kts | 209° |
| 2026-05-06 11:57 | 37.32192 | -80.63436 | 35866 ft | 419 kts | 209° |
| 2026-05-06 11:58 | 37.26558 | -80.65332 | 35955 ft | 420 kts | 209° |
| 2026-05-06 11:58 | 37.20911 | -80.67234 | 35970 ft | 419 kts | 209° |
| 2026-05-06 11:59 | 37.15271 | -80.69124 | 35971 ft | 420 kts | 209° |
| 2026-05-06 11:59 | 37.09588 | -80.70924 | 35950 ft | 431 kts | 204° |
| 2026-05-06 12:00 | 37.06533 | -80.71261 | 35970 ft | 452 kts | 194° |
| 2026-05-06 12:00 | 37.03378 | -80.71187 | 35966 ft | 455 kts | 193° |
| 2026-05-06 12:00 | 36.97032 | -80.71015 | 35947 ft | 456 kts | 193° |
| 2026-05-06 12:01 | 36.90691 | -80.70860 | 35988 ft | 455 kts | 193° |
| 2026-05-06 12:01 | 36.84365 | -80.70717 | 36012 ft | 456 kts | 194° |
| 2026-05-06 12:02 | 36.77995 | -80.70579 | 36024 ft | 457 kts | 194° |
| 2026-05-06 12:02 | 36.71630 | -80.70430 | 36019 ft | 458 kts | 193° |
| 2026-05-06 12:03 | 36.65256 | -80.70277 | 36001 ft | 458 kts | 193° |
| 2026-05-06 12:03 | 36.58876 | -80.70125 | 35976 ft | 460 kts | 193° |
| 2026-05-06 12:04 | 36.52472 | -80.69985 | 35933 ft | 461 kts | 193° |
| 2026-05-06 12:04 | 36.46069 | -80.69837 | 35938 ft | 461 kts | 193° |
| 2026-05-06 12:05 | 36.39649 | -80.69685 | 35937 ft | 461 kts | 193° |
| 2026-05-06 12:05 | 36.33219 | -80.69534 | 35950 ft | 464 kts | 192° |
| 2026-05-06 12:06 | 36.26765 | -80.69386 | 35951 ft | 464 kts | 192° |
| 2026-05-06 12:06 | 36.20306 | -80.69234 | 35960 ft | 464 kts | 192° |
| 2026-05-06 12:07 | 36.13886 | -80.69085 | 35934 ft | 464 kts | 192° |
| 2026-05-06 12:07 | 36.07381 | -80.68940 | 35955 ft | 469 kts | 191° |
| 2026-05-06 12:08 | 36.00860 | -80.68793 | 35955 ft | 470 kts | 191° |
| 2026-05-06 12:08 | 35.94321 | -80.68644 | 35962 ft | 470 kts | 191° |
| 2026-05-06 12:09 | 35.87784 | -80.68488 | 35959 ft | 470 kts | 191° |
| 2026-05-06 12:09 | 35.81221 | -80.68337 | 36014 ft | 472 kts | 191° |
| 2026-05-06 12:10 | 35.74636 | -80.68186 | 36013 ft | 473 kts | 191° |
| 2026-05-06 12:10 | 35.68063 | -80.68033 | 36019 ft | 473 kts | 191° |
| 2026-05-06 12:11 | 35.62595 | -80.67907 | 36024 ft | 473 kts | 191° |
| 2026-05-06 12:11 | 35.56020 | -80.67767 | 36045 ft | 472 kts | 191° |
| 2026-05-06 12:12 | 35.49441 | -80.67619 | 36059 ft | 473 kts | 191° |
| 2026-05-06 12:12 | 35.42868 | -80.67463 | 36064 ft | 473 kts | 191° |
| 2026-05-06 12:13 | 35.36282 | -80.67315 | 36064 ft | 474 kts | 190° |
| 2026-05-06 12:13 | 35.29681 | -80.67171 | 36063 ft | 475 kts | 190° |
| 2026-05-06 12:14 | 35.23069 | -80.67017 | 36055 ft | 475 kts | 190° |
| 2026-05-06 12:14 | 35.16456 | -80.66863 | 36048 ft | 475 kts | 190° |
| 2026-05-06 12:15 | 35.09838 | -80.66719 | 36034 ft | 478 kts | 190° |
| 2026-05-06 12:15 | 35.03175 | -80.66576 | 36032 ft | 479 kts | 190° |
| 2026-05-06 12:16 | 34.96517 | -80.66431 | 36037 ft | 479 kts | 189° |
| 2026-05-06 12:16 | 34.89854 | -80.66278 | 36041 ft | 479 kts | 189° |
| 2026-05-06 12:17 | 34.83181 | -80.66128 | 36045 ft | 481 kts | 189° |
| 2026-05-06 12:17 | 34.76479 | -80.65984 | 36051 ft | 481 kts | 189° |
| 2026-05-06 12:18 | 34.69789 | -80.65835 | 36048 ft | 481 kts | 189° |
| 2026-05-06 12:18 | 34.63043 | -80.65050 | 36013 ft | 499 kts | 175° |
| 2026-05-06 12:19 | 34.56308 | -80.62556 | 36048 ft | 507 kts | 171° |
| 2026-05-06 12:19 | 34.49570 | -80.59997 | 36040 ft | 507 kts | 171° |
| 2026-05-06 12:20 | 34.42832 | -80.57455 | 36072 ft | 507 kts | 171° |
| 2026-05-06 12:20 | 34.36085 | -80.54923 | 36055 ft | 507 kts | 171° |
| 2026-05-06 12:21 | 34.29319 | -80.52618 | 36081 ft | 499 kts | 180° |
| 2026-05-06 12:21 | 34.25908 | -80.52182 | 36085 ft | 488 kts | 189° |
| 2026-05-06 12:21 | 34.22563 | -80.52325 | 36082 ft | 476 kts | 198° |
| 2026-05-06 12:22 | 34.19336 | -80.52999 | 36081 ft | 464 kts | 205° |
| 2026-05-06 12:22 | 34.16216 | -80.53948 | 36083 ft | 463 kts | 205° |
| 2026-05-06 12:22 | 34.09980 | -80.55820 | 36012 ft | 459 kts | 205° |
| 2026-05-06 12:23 | 34.03820 | -80.57658 | 36053 ft | 459 kts | 205° |
| 2026-05-06 12:23 | 33.97629 | -80.59506 | 36054 ft | 458 kts | 205° |
| 2026-05-06 12:24 | 33.91394 | -80.61367 | 36054 ft | 459 kts | 205° |
| 2026-05-06 12:24 | 33.85243 | -80.63199 | 36030 ft | 459 kts | 205° |
| 2026-05-06 12:25 | 33.79050 | -80.65042 | 36054 ft | 458 kts | 205° |
| 2026-05-06 12:25 | 33.72862 | -80.66881 | 36073 ft | 458 kts | 205° |
| 2026-05-06 12:26 | 33.66678 | -80.68710 | 36071 ft | 458 kts | 205° |
| 2026-05-06 12:26 | 33.60493 | -80.70540 | 36070 ft | 458 kts | 205° |
| 2026-05-06 12:27 | 33.54300 | -80.72376 | 36080 ft | 459 kts | 205° |
| 2026-05-06 12:27 | 33.48095 | -80.74204 | 36082 ft | 459 kts | 204° |
| 2026-05-06 12:28 | 33.41887 | -80.76010 | 36082 ft | 459 kts | 204° |
| 2026-05-06 12:28 | 33.35697 | -80.77830 | 36081 ft | 458 kts | 204° |
| 2026-05-06 12:29 | 33.29492 | -80.79660 | 36082 ft | 459 kts | 204° |
| 2026-05-06 12:29 | 33.23281 | -80.81477 | 36080 ft | 460 kts | 204° |
| 2026-05-06 12:30 | 33.17060 | -80.83291 | 36080 ft | 460 kts | 204° |
| 2026-05-06 12:30 | 33.10853 | -80.85108 | 36081 ft | 460 kts | 204° |
| 2026-05-06 12:31 | 33.04635 | -80.86925 | 36090 ft | 460 kts | 204° |
| 2026-05-06 12:31 | 32.98457 | -80.88720 | 36092 ft | 460 kts | 204° |
| 2026-05-06 12:32 | 32.92245 | -80.90532 | 36091 ft | 459 kts | 204° |
| 2026-05-06 12:32 | 32.86043 | -80.92336 | 36086 ft | 457 kts | 204° |
| 2026-05-06 12:33 | 32.79867 | -80.94117 | 36085 ft | 456 kts | 205° |
| 2026-05-06 12:33 | 32.73696 | -80.95905 | 36082 ft | 456 kts | 205° |
| 2026-05-06 12:34 | 32.67535 | -80.97693 | 36081 ft | 456 kts | 205° |
| 2026-05-06 12:34 | 32.61362 | -80.99473 | 36088 ft | 456 kts | 205° |
| 2026-05-06 12:35 | 32.55195 | -81.01246 | 36069 ft | 456 kts | 204° |
| 2026-05-06 12:35 | 32.52013 | -81.01866 | 36089 ft | 470 kts | 195° |
| 2026-05-06 12:35 | 32.48716 | -81.01992 | 36089 ft | 476 kts | 191° |
| 2026-05-06 12:36 | 32.42091 | -81.02096 | 36090 ft | 476 kts | 191° |
| 2026-05-06 12:36 | 32.35465 | -81.02201 | 36090 ft | 476 kts | 191° |
| 2026-05-06 12:37 | 32.28847 | -81.02317 | 36076 ft | 476 kts | 191° |
| 2026-05-06 12:37 | 32.22216 | -81.02442 | 36090 ft | 477 kts | 191° |
| 2026-05-06 12:38 | 32.15580 | -81.02565 | 36087 ft | 477 kts | 191° |
| 2026-05-06 12:38 | 32.08944 | -81.02677 | 36064 ft | 477 kts | 191° |
| 2026-05-06 12:39 | 32.02314 | -81.02791 | 36033 ft | 477 kts | 192° |
| 2026-05-06 12:39 | 31.95655 | -81.02930 | 36063 ft | 479 kts | 192° |
| 2026-05-06 12:40 | 31.88980 | -81.03121 | 36066 ft | 480 kts | 192° |
| 2026-05-06 12:40 | 31.82308 | -81.03316 | 36068 ft | 480 kts | 192° |
| 2026-05-06 12:41 | 31.75635 | -81.03503 | 36049 ft | 480 kts | 192° |